sensor_id;sensor_type;location;lat;lon;timestamp;P1;durP1;ratioP1;P2;durP2;ratioP2
75730;SDS011;64350;47.450;19.124;2023-02-15T05:09:24;51.43;;;23.77;;
75730;SDS011;64350;47.450;19.124;2023-02-15T05:11:49;56.50;;;23.80;;
75730;SDS011;64350;47.450;19.124;2023-02-15T05:14:14;52.97;;;24.47;;
75730;SDS011;64350;47.450;19.124;2023-02-15T05:16:40;56.47;;;25.20;;
75730;SDS011;64350;47.450;19.124;2023-02-15T05:19:05;51.60;;;22.97;;
75730;SDS011;64350;47.450;19.124;2023-02-15T05:21:31;53.63;;;22.43;;
75730;SDS011;64350;47.450;19.124;2023-02-15T05:23:57;55.03;;;23.00;;
75730;SDS011;64350;47.450;19.124;2023-02-15T05:26:23;56.05;;;24.75;;
75730;SDS011;64350;47.450;19.124;2023-02-15T05:29:08;54.63;;;23.73;;
75730;SDS011;64350;47.450;19.124;2023-02-15T05:31:34;52.08;;;22.45;;
75730;SDS011;64350;47.450;19.124;2023-02-15T05:34:00;58.13;;;23.12;;
75730;SDS011;64350;47.450;19.124;2023-02-15T05:36:25;56.13;;;22.83;;
75730;SDS011;64350;47.450;19.124;2023-02-15T05:38:51;53.73;;;23.13;;
75730;SDS011;64350;47.450;19.124;2023-02-15T05:41:17;51.80;;;23.47;;
75730;SDS011;64350;47.450;19.124;2023-02-15T05:43:42;50.03;;;22.60;;
75730;SDS011;64350;47.450;19.124;2023-02-15T05:46:07;50.37;;;22.60;;
75730;SDS011;64350;47.450;19.124;2023-02-15T05:48:33;55.53;;;23.20;;
75730;SDS011;64350;47.450;19.124;2023-02-15T05:51:00;52.80;;;22.42;;
75730;SDS011;64350;47.450;19.124;2023-02-15T05:53:28;54.65;;;23.95;;
75730;SDS011;64350;47.450;19.124;2023-02-15T05:55:54;54.33;;;24.50;;
75730;SDS011;64350;47.450;19.124;2023-02-15T05:58:24;54.80;;;22.60;;
75730;SDS011;64350;47.450;19.124;2023-02-15T06:00:56;58.15;;;24.58;;
75730;SDS011;64350;47.450;19.124;2023-02-15T06:03:23;50.17;;;22.42;;
75730;SDS011;64350;47.450;19.124;2023-02-15T06:05:50;57.03;;;24.05;;
75730;SDS011;64350;47.450;19.124;2023-02-15T06:08:16;49.10;;;21.77;;
75730;SDS011;64350;47.450;19.124;2023-02-15T06:10:41;51.87;;;22.67;;
75730;SDS011;64350;47.450;19.124;2023-02-15T06:13:06;50.70;;;21.27;;
75730;SDS011;64350;47.450;19.124;2023-02-15T06:15:32;50.23;;;21.57;;
75730;SDS011;64350;47.450;19.124;2023-02-15T06:17:58;54.85;;;21.83;;
75730;SDS011;64350;47.450;19.124;2023-02-15T06:20:23;49.33;;;22.40;;
75730;SDS011;64350;47.450;19.124;2023-02-15T06:22:49;51.20;;;23.02;;
75730;SDS011;64350;47.450;19.124;2023-02-15T06:25:14;55.20;;;23.33;;
75730;SDS011;64350;47.450;19.124;2023-02-15T06:27:43;53.43;;;22.20;;
75730;SDS011;64350;47.450;19.124;2023-02-15T06:30:08;48.65;;;22.20;;
75730;SDS011;64350;47.450;19.124;2023-02-15T06:32:35;50.03;;;21.90;;
75730;SDS011;64350;47.450;19.124;2023-02-15T06:35:00;48.33;;;22.90;;
75730;SDS011;64350;47.450;19.124;2023-02-15T06:37:25;48.20;;;21.53;;
75730;SDS011;64350;47.450;19.124;2023-02-15T06:39:51;47.60;;;24.20;;
75730;SDS011;64350;47.450;19.124;2023-02-15T06:42:16;44.90;;;22.83;;
75730;SDS011;64350;47.450;19.124;2023-02-15T06:44:43;49.42;;;22.48;;
75730;SDS011;64350;47.450;19.124;2023-02-15T06:47:09;46.40;;;22.07;;
75730;SDS011;64350;47.450;19.124;2023-02-15T06:49:35;42.72;;;21.62;;
75730;SDS011;64350;47.450;19.124;2023-02-15T06:52:01;46.80;;;22.40;;
75730;SDS011;64350;47.450;19.124;2023-02-15T06:54:26;46.40;;;23.52;;
75730;SDS011;64350;47.450;19.124;2023-02-15T06:56:52;52.60;;;23.57;;
75730;SDS011;64350;47.450;19.124;2023-02-15T06:59:17;49.33;;;23.23;;
75730;SDS011;64350;47.450;19.124;2023-02-15T07:01:42;47.13;;;23.87;;
75730;SDS011;64350;47.450;19.124;2023-02-15T07:04:08;48.97;;;23.42;;
75730;SDS011;64350;47.450;19.124;2023-02-15T07:06:34;49.47;;;23.33;;
75730;SDS011;64350;47.450;19.124;2023-02-15T07:09:00;49.65;;;24.45;;
75730;SDS011;64350;47.450;19.124;2023-02-15T07:11:26;48.73;;;22.70;;
75730;SDS011;64350;47.450;19.124;2023-02-15T07:14:11;45.58;;;22.98;;
75730;SDS011;64350;47.450;19.124;2023-02-15T07:16:36;43.73;;;22.53;;
75730;SDS011;64350;47.450;19.124;2023-02-15T07:19:02;43.92;;;22.95;;
75730;SDS011;64350;47.450;19.124;2023-02-15T07:21:27;47.43;;;22.73;;
75730;SDS011;64350;47.450;19.124;2023-02-15T07:23:55;39.77;;;21.90;;
75730;SDS011;64350;47.450;19.124;2023-02-15T07:26:21;46.28;;;23.55;;
75730;SDS011;64350;47.450;19.124;2023-02-15T07:28:47;42.43;;;22.33;;
75730;SDS011;64350;47.450;19.124;2023-02-15T07:31:12;40.67;;;22.35;;
75730;SDS011;64350;47.450;19.124;2023-02-15T07:33:38;40.60;;;21.70;;
75730;SDS011;64350;47.450;19.124;2023-02-15T07:36:04;44.43;;;22.97;;
75730;SDS011;64350;47.450;19.124;2023-02-15T07:38:30;37.60;;;21.35;;
75730;SDS011;64350;47.450;19.124;2023-02-15T07:41:03;37.10;;;21.60;;
75730;SDS011;64350;47.450;19.124;2023-02-15T07:43:32;37.63;;;21.87;;
75730;SDS011;64350;47.450;19.124;2023-02-15T07:45:59;38.87;;;22.83;;
75730;SDS011;64350;47.450;19.124;2023-02-15T07:48:25;40.60;;;23.30;;
75730;SDS011;64350;47.450;19.124;2023-02-15T07:50:51;39.45;;;22.95;;
75730;SDS011;64350;47.450;19.124;2023-02-15T07:53:16;39.70;;;22.87;;
75730;SDS011;64350;47.450;19.124;2023-02-15T07:55:42;38.67;;;22.77;;
75730;SDS011;64350;47.450;19.124;2023-02-15T07:58:07;43.80;;;23.15;;
75730;SDS011;64350;47.450;19.124;2023-02-15T08:00:33;38.80;;;22.77;;
75730;SDS011;64350;47.450;19.124;2023-02-15T08:03:18;40.85;;;23.40;;
75730;SDS011;64350;47.450;19.124;2023-02-15T08:05:44;38.57;;;22.47;;
75730;SDS011;64350;47.450;19.124;2023-02-15T08:08:10;41.50;;;23.27;;
75730;SDS011;64350;47.450;19.124;2023-02-15T08:11:01;41.15;;;23.23;;
75730;SDS011;64350;47.450;19.124;2023-02-15T08:13:49;38.17;;;23.17;;
75730;SDS011;64350;47.450;19.124;2023-02-15T08:16:40;41.75;;;23.85;;
75730;SDS011;64350;47.450;19.124;2023-02-15T08:19:07;47.25;;;24.23;;
75730;SDS011;64350;47.450;19.124;2023-02-15T08:21:34;43.38;;;25.60;;
75730;SDS011;64350;47.450;19.124;2023-02-15T08:24:02;41.78;;;24.40;;
75730;SDS011;64350;47.450;19.124;2023-02-15T08:26:28;48.97;;;27.07;;
75730;SDS011;64350;47.450;19.124;2023-02-15T08:28:55;44.72;;;25.60;;
75730;SDS011;64350;47.450;19.124;2023-02-15T08:31:21;45.55;;;25.85;;
75730;SDS011;64350;47.450;19.124;2023-02-15T08:33:47;43.30;;;25.23;;
75730;SDS011;64350;47.450;19.124;2023-02-15T08:36:15;44.10;;;23.98;;
75730;SDS011;64350;47.450;19.124;2023-02-15T08:38:42;44.50;;;24.83;;
75730;SDS011;64350;47.450;19.124;2023-02-15T08:41:16;48.78;;;26.42;;
75730;SDS011;64350;47.450;19.124;2023-02-15T08:43:44;44.93;;;25.57;;
75730;SDS011;64350;47.450;19.124;2023-02-15T08:46:11;41.37;;;22.95;;
75730;SDS011;64350;47.450;19.124;2023-02-15T08:48:38;45.08;;;23.10;;
75730;SDS011;64350;47.450;19.124;2023-02-15T08:51:04;42.80;;;22.35;;
75730;SDS011;64350;47.450;19.124;2023-02-15T08:53:41;43.43;;;23.20;;
75730;SDS011;64350;47.450;19.124;2023-02-15T08:56:09;42.72;;;22.62;;
75730;SDS011;64350;47.450;19.124;2023-02-15T08:58:34;42.45;;;23.27;;
75730;SDS011;64350;47.450;19.124;2023-02-15T09:01:00;41.57;;;22.17;;
75730;SDS011;64350;47.450;19.124;2023-02-15T09:03:28;40.85;;;22.20;;
75730;SDS011;64350;47.450;19.124;2023-02-15T09:06:00;43.63;;;22.50;;
75730;SDS011;64350;47.450;19.124;2023-02-15T09:08:26;42.42;;;21.77;;
75730;SDS011;64350;47.450;19.124;2023-02-15T09:10:52;43.37;;;23.27;;
75730;SDS011;64350;47.450;19.124;2023-02-15T09:13:18;37.80;;;19.50;;
75730;SDS011;64350;47.450;19.124;2023-02-15T09:15:43;46.53;;;21.77;;
75730;SDS011;64350;47.450;19.124;2023-02-15T09:18:09;40.77;;;21.60;;
75730;SDS011;64350;47.450;19.124;2023-02-15T09:20:37;37.10;;;18.52;;
75730;SDS011;64350;47.450;19.124;2023-02-15T09:23:03;36.53;;;18.73;;
75730;SDS011;64350;47.450;19.124;2023-02-15T09:25:28;36.33;;;20.08;;
75730;SDS011;64350;47.450;19.124;2023-02-15T09:27:53;33.13;;;18.93;;
75730;SDS011;64350;47.450;19.124;2023-02-15T09:30:19;33.97;;;19.23;;
75730;SDS011;64350;47.450;19.124;2023-02-15T09:32:45;31.60;;;17.75;;
75730;SDS011;64350;47.450;19.124;2023-02-15T09:35:11;29.13;;;16.87;;
75730;SDS011;64350;47.450;19.124;2023-02-15T09:37:37;33.53;;;17.67;;
75730;SDS011;64350;47.450;19.124;2023-02-15T09:40:03;32.80;;;16.98;;
75730;SDS011;64350;47.450;19.124;2023-02-15T09:43:33;45.57;;;17.83;;
75730;SDS011;64350;47.450;19.124;2023-02-15T09:45:38;33.80;;;15.93;;
75730;SDS011;64350;47.450;19.124;2023-02-15T09:53:32;30.58;;;15.80;;
75730;SDS011;64350;47.450;19.124;2023-02-15T10:04:45;23.92;;;13.13;;
75730;SDS011;64350;47.450;19.124;2023-02-15T10:20:52;36.47;;;19.33;;
75730;SDS011;64350;47.450;19.124;2023-02-15T10:26:19;34.90;;;20.15;;
75730;SDS011;64350;47.450;19.124;2023-02-15T10:36:53;34.97;;;20.20;;
75730;SDS011;64350;47.450;19.124;2023-02-15T10:45:10;34.88;;;20.98;;
75730;SDS011;64350;47.450;19.124;2023-02-15T10:50:24;36.60;;;21.30;;
75730;SDS011;64350;47.450;19.124;2023-02-15T10:58:17;34.70;;;22.10;;
75730;SDS011;64350;47.450;19.124;2023-02-15T11:01:05;38.90;;;23.80;;
75730;SDS011;64350;47.450;19.124;2023-02-15T11:03:36;39.33;;;22.83;;
75730;SDS011;64350;47.450;19.124;2023-02-15T11:06:17;35.17;;;23.00;;
75730;SDS011;64350;47.450;19.124;2023-02-15T11:08:48;38.85;;;22.08;;
75730;SDS011;64350;47.450;19.124;2023-02-15T11:11:20;32.17;;;20.35;;
75730;SDS011;64350;47.450;19.124;2023-02-15T11:13:49;34.90;;;20.33;;
75730;SDS011;64350;47.450;19.124;2023-02-15T11:16:26;34.87;;;21.23;;
75730;SDS011;64350;47.450;19.124;2023-02-15T11:18:59;31.52;;;20.45;;
75730;SDS011;64350;47.450;19.124;2023-02-15T11:21:32;32.95;;;21.35;;
75730;SDS011;64350;47.450;19.124;2023-02-15T11:24:13;37.58;;;22.27;;
75730;SDS011;64350;47.450;19.124;2023-02-15T11:26:50;37.35;;;24.02;;
75730;SDS011;64350;47.450;19.124;2023-02-15T11:31:58;33.70;;;21.73;;
75730;SDS011;64350;47.450;19.124;2023-02-15T11:34:31;32.60;;;21.05;;
75730;SDS011;64350;47.450;19.124;2023-02-15T11:37:10;36.58;;;22.17;;
75730;SDS011;64350;47.450;19.124;2023-02-15T11:39:40;34.67;;;22.73;;
75730;SDS011;64350;47.450;19.124;2023-02-15T11:42:13;31.67;;;20.33;;
75730;SDS011;64350;47.450;19.124;2023-02-15T11:44:48;33.20;;;21.27;;
75730;SDS011;64350;47.450;19.124;2023-02-15T11:47:20;30.75;;;19.95;;
75730;SDS011;64350;47.450;19.124;2023-02-15T11:49:45;30.77;;;19.17;;
75730;SDS011;64350;47.450;19.124;2023-02-15T11:52:12;33.55;;;21.00;;
75730;SDS011;64350;47.450;19.124;2023-02-15T11:54:42;28.02;;;18.48;;
75730;SDS011;64350;47.450;19.124;2023-02-15T11:57:17;29.03;;;18.40;;
75730;SDS011;64350;47.450;19.124;2023-02-15T11:59:53;37.05;;;20.67;;
75730;SDS011;64350;47.450;19.124;2023-02-15T12:02:23;29.92;;;19.87;;
75730;SDS011;64350;47.450;19.124;2023-02-15T12:05:11;24.08;;;15.65;;
75730;SDS011;64350;47.450;19.124;2023-02-15T12:07:43;25.83;;;16.25;;
75730;SDS011;64350;47.450;19.124;2023-02-15T12:10:25;31.33;;;19.00;;
75730;SDS011;64350;47.450;19.124;2023-02-15T12:15:35;31.00;;;20.52;;
75730;SDS011;64350;47.450;19.124;2023-02-15T12:18:01;32.85;;;19.00;;
75730;SDS011;64350;47.450;19.124;2023-02-15T12:20:31;30.20;;;19.30;;
75730;SDS011;64350;47.450;19.124;2023-02-15T12:28:02;31.40;;;19.73;;
75730;SDS011;64350;47.450;19.124;2023-02-15T12:30:30;29.67;;;18.25;;
75730;SDS011;64350;47.450;19.124;2023-02-15T12:32:58;32.00;;;19.67;;
75730;SDS011;64350;47.450;19.124;2023-02-15T12:35:31;28.10;;;17.45;;
75730;SDS011;64350;47.450;19.124;2023-02-15T12:38:19;29.15;;;17.40;;
75730;SDS011;64350;47.450;19.124;2023-02-15T12:40:59;31.87;;;18.57;;
75730;SDS011;64350;47.450;19.124;2023-02-15T12:43:31;32.85;;;18.77;;
75730;SDS011;64350;47.450;19.124;2023-02-15T12:48:45;32.33;;;19.08;;
75730;SDS011;64350;47.450;19.124;2023-02-15T12:51:12;38.22;;;21.67;;
75730;SDS011;64350;47.450;19.124;2023-02-15T12:53:39;33.20;;;20.57;;
75730;SDS011;64350;47.450;19.124;2023-02-15T12:56:06;35.60;;;20.27;;
75730;SDS011;64350;47.450;19.124;2023-02-15T12:58:33;39.28;;;22.85;;
75730;SDS011;64350;47.450;19.124;2023-02-15T13:01:18;35.20;;;20.87;;
75730;SDS011;64350;47.450;19.124;2023-02-15T13:03:54;38.15;;;21.80;;
75730;SDS011;64350;47.450;19.124;2023-02-15T13:06:31;38.63;;;19.80;;
75730;SDS011;64350;47.450;19.124;2023-02-15T13:09:43;40.00;;;21.65;;
75730;SDS011;64350;47.450;19.124;2023-02-15T13:11:56;40.47;;;21.45;;
75730;SDS011;64350;47.450;19.124;2023-02-15T13:14:25;38.53;;;20.97;;
75730;SDS011;64350;47.450;19.124;2023-02-15T13:16:56;38.05;;;21.62;;
75730;SDS011;64350;47.450;19.124;2023-02-15T13:21:52;41.13;;;21.00;;
75730;SDS011;64350;47.450;19.124;2023-02-15T13:24:29;38.20;;;20.37;;
75730;SDS011;64350;47.450;19.124;2023-02-15T13:26:58;39.03;;;20.87;;
75730;SDS011;64350;47.450;19.124;2023-02-15T13:29:26;40.03;;;20.62;;
75730;SDS011;64350;47.450;19.124;2023-02-15T13:31:53;38.75;;;20.62;;
75730;SDS011;64350;47.450;19.124;2023-02-15T13:34:22;41.93;;;20.87;;
75730;SDS011;64350;47.450;19.124;2023-02-15T13:39:58;39.42;;;20.33;;
75730;SDS011;64350;47.450;19.124;2023-02-15T13:42:30;40.83;;;20.70;;
75730;SDS011;64350;47.450;19.124;2023-02-15T13:45:13;42.03;;;21.23;;
75730;SDS011;64350;47.450;19.124;2023-02-15T13:48:00;39.80;;;19.13;;
75730;SDS011;64350;47.450;19.124;2023-02-15T14:14:57;40.77;;;19.73;;
75730;SDS011;64350;47.450;19.124;2023-02-15T14:25:42;41.92;;;20.45;;
75730;SDS011;64350;47.450;19.124;2023-02-15T14:31:14;37.40;;;18.20;;
75730;SDS011;64350;47.450;19.124;2023-02-15T14:33:41;41.78;;;19.48;;
75730;SDS011;64350;47.450;19.124;2023-02-15T14:36:12;35.83;;;17.87;;
75730;SDS011;64350;47.450;19.124;2023-02-15T14:47:09;34.67;;;15.32;;
75730;SDS011;64350;47.450;19.124;2023-02-15T14:49:41;38.55;;;15.43;;
75730;SDS011;64350;47.450;19.124;2023-02-15T14:52:07;37.07;;;16.20;;
75730;SDS011;64350;47.450;19.124;2023-02-15T15:09:28;35.47;;;17.83;;
75730;SDS011;64350;47.450;19.124;2023-02-15T15:11:55;36.37;;;16.93;;
75730;SDS011;64350;47.450;19.124;2023-02-15T15:15:00;31.05;;;15.88;;
75730;SDS011;64350;47.450;19.124;2023-02-15T15:22:44;40.77;;;16.77;;
75730;SDS011;64350;47.450;19.124;2023-02-15T15:25:11;37.00;;;17.25;;
75730;SDS011;64350;47.450;19.124;2023-02-15T15:32:37;40.43;;;18.60;;
75730;SDS011;64350;47.450;19.124;2023-02-15T15:35:27;33.75;;;16.85;;
75730;SDS011;64350;47.450;19.124;2023-02-15T15:41:32;37.20;;;17.23;;
75730;SDS011;64350;47.450;19.124;2023-02-15T15:49:41;37.60;;;16.92;;
75730;SDS011;64350;47.450;19.124;2023-02-15T15:52:19;40.33;;;17.55;;
75730;SDS011;64350;47.450;19.124;2023-02-15T15:54:46;45.45;;;17.67;;
75730;SDS011;64350;47.450;19.124;2023-02-15T15:57:49;41.73;;;19.53;;
75730;SDS011;64350;47.450;19.124;2023-02-15T16:02:59;43.00;;;16.77;;
75730;SDS011;64350;47.450;19.124;2023-02-15T16:05:25;38.10;;;17.63;;
75730;SDS011;64350;47.450;19.124;2023-02-15T16:07:51;37.55;;;18.05;;
75730;SDS011;64350;47.450;19.124;2023-02-15T16:10:21;35.53;;;17.17;;
75730;SDS011;64350;47.450;19.124;2023-02-15T16:12:48;36.40;;;18.48;;
75730;SDS011;64350;47.450;19.124;2023-02-15T16:15:16;42.60;;;19.35;;
75730;SDS011;64350;47.450;19.124;2023-02-15T16:17:45;41.90;;;18.00;;
75730;SDS011;64350;47.450;19.124;2023-02-15T16:28:15;37.38;;;17.90;;
75730;SDS011;64350;47.450;19.124;2023-02-15T16:30:43;42.55;;;18.10;;
75730;SDS011;64350;47.450;19.124;2023-02-15T16:33:13;40.10;;;19.07;;
75730;SDS011;64350;47.450;19.124;2023-02-15T16:35:55;38.45;;;18.50;;
75730;SDS011;64350;47.450;19.124;2023-02-15T16:41:30;42.42;;;19.50;;
75730;SDS011;64350;47.450;19.124;2023-02-15T16:43:58;46.25;;;21.15;;
75730;SDS011;64350;47.450;19.124;2023-02-15T16:46:36;43.63;;;20.63;;
75730;SDS011;64350;47.450;19.124;2023-02-15T16:49:05;45.20;;;22.08;;
75730;SDS011;64350;47.450;19.124;2023-02-15T16:51:33;56.00;;;25.40;;
75730;SDS011;64350;47.450;19.124;2023-02-15T16:54:06;55.28;;;23.62;;
75730;SDS011;64350;47.450;19.124;2023-02-15T16:56:33;52.42;;;24.33;;
75730;SDS011;64350;47.450;19.124;2023-02-15T16:58:59;58.90;;;27.30;;
75730;SDS011;64350;47.450;19.124;2023-02-15T17:01:29;54.60;;;25.65;;
75730;SDS011;64350;47.450;19.124;2023-02-15T17:06:59;60.28;;;24.90;;
75730;SDS011;64350;47.450;19.124;2023-02-15T17:09:31;60.00;;;25.73;;
75730;SDS011;64350;47.450;19.124;2023-02-15T17:11:59;57.07;;;24.97;;
75730;SDS011;64350;47.450;19.124;2023-02-15T17:14:27;63.03;;;25.77;;
75730;SDS011;64350;47.450;19.124;2023-02-15T17:17:02;57.30;;;26.80;;
75730;SDS011;64350;47.450;19.124;2023-02-15T17:19:33;58.10;;;25.90;;
75730;SDS011;64350;47.450;19.124;2023-02-15T17:22:14;63.10;;;27.87;;
75730;SDS011;64350;47.450;19.124;2023-02-15T17:24:43;63.80;;;28.80;;
75730;SDS011;64350;47.450;19.124;2023-02-15T17:27:23;66.72;;;29.83;;
75730;SDS011;64350;47.450;19.124;2023-02-15T17:29:57;69.28;;;29.15;;
75730;SDS011;64350;47.450;19.124;2023-02-15T17:32:28;64.22;;;31.02;;
75730;SDS011;64350;47.450;19.124;2023-02-15T17:40:06;67.80;;;29.65;;
75730;SDS011;64350;47.450;19.124;2023-02-15T17:42:40;62.75;;;28.92;;
75730;SDS011;64350;47.450;19.124;2023-02-15T17:45:05;70.33;;;28.90;;
75730;SDS011;64350;47.450;19.124;2023-02-15T17:47:31;72.50;;;30.62;;
75730;SDS011;64350;47.450;19.124;2023-02-15T17:49:56;62.37;;;28.00;;
75730;SDS011;64350;47.450;19.124;2023-02-15T17:52:22;63.40;;;28.53;;
75730;SDS011;64350;47.450;19.124;2023-02-15T17:54:48;66.03;;;28.80;;
75730;SDS011;64350;47.450;19.124;2023-02-15T17:57:31;63.22;;;27.67;;
75730;SDS011;64350;47.450;19.124;2023-02-15T17:59:58;67.72;;;29.33;;
75730;SDS011;64350;47.450;19.124;2023-02-15T18:02:42;59.70;;;27.10;;
75730;SDS011;64350;47.450;19.124;2023-02-15T18:05:26;65.40;;;26.75;;
75730;SDS011;64350;47.450;19.124;2023-02-15T18:08:12;62.33;;;28.77;;
75730;SDS011;64350;47.450;19.124;2023-02-15T18:11:00;64.05;;;28.58;;
75730;SDS011;64350;47.450;19.124;2023-02-15T18:13:45;68.35;;;29.30;;
75730;SDS011;64350;47.450;19.124;2023-02-15T18:16:14;84.10;;;32.00;;
75730;SDS011;64350;47.450;19.124;2023-02-15T18:18:42;83.60;;;32.45;;
75730;SDS011;64350;47.450;19.124;2023-02-15T18:21:08;85.18;;;33.97;;
75730;SDS011;64350;47.450;19.124;2023-02-15T18:23:36;87.60;;;35.05;;
75730;SDS011;64350;47.450;19.124;2023-02-15T18:26:02;96.32;;;36.85;;
75730;SDS011;64350;47.450;19.124;2023-02-15T18:28:30;91.27;;;36.00;;
75730;SDS011;64350;47.450;19.124;2023-02-15T18:30:56;111.47;;;40.20;;
75730;SDS011;64350;47.450;19.124;2023-02-15T18:33:31;88.18;;;37.97;;
75730;SDS011;64350;47.450;19.124;2023-02-15T18:35:59;84.10;;;36.27;;
75730;SDS011;64350;47.450;19.124;2023-02-15T18:38:29;89.65;;;34.92;;
75730;SDS011;64350;47.450;19.124;2023-02-15T18:40:55;92.88;;;36.63;;
75730;SDS011;64350;47.450;19.124;2023-02-15T18:43:21;86.70;;;34.88;;
75730;SDS011;64350;47.450;19.124;2023-02-15T18:45:47;88.17;;;37.67;;
75730;SDS011;64350;47.450;19.124;2023-02-15T18:48:12;89.10;;;36.97;;
75730;SDS011;64350;47.450;19.124;2023-02-15T18:50:39;94.32;;;37.75;;
75730;SDS011;64350;47.450;19.124;2023-02-15T18:53:05;84.40;;;38.33;;
75730;SDS011;64350;47.450;19.124;2023-02-15T18:55:32;88.25;;;40.50;;
75730;SDS011;64350;47.450;19.124;2023-02-15T18:57:59;91.65;;;40.10;;
75730;SDS011;64350;47.450;19.124;2023-02-15T19:00:28;96.13;;;39.67;;
75730;SDS011;64350;47.450;19.124;2023-02-15T19:02:56;94.20;;;39.75;;
75730;SDS011;64350;47.450;19.124;2023-02-15T19:05:23;101.05;;;41.60;;
75730;SDS011;64350;47.450;19.124;2023-02-15T19:07:51;97.62;;;44.50;;
75730;SDS011;64350;47.450;19.124;2023-02-15T19:10:18;104.63;;;42.77;;
75730;SDS011;64350;47.450;19.124;2023-02-15T19:12:45;103.85;;;42.17;;
75730;SDS011;64350;47.450;19.124;2023-02-15T19:15:16;96.43;;;40.80;;
75730;SDS011;64350;47.450;19.124;2023-02-15T19:17:45;92.25;;;41.37;;
75730;SDS011;64350;47.450;19.124;2023-02-15T19:20:15;108.33;;;42.33;;
75730;SDS011;64350;47.450;19.124;2023-02-15T19:22:41;101.12;;;41.25;;
75730;SDS011;64350;47.450;19.124;2023-02-15T19:25:06;107.70;;;44.17;;
75730;SDS011;64350;47.450;19.124;2023-02-15T19:27:33;115.80;;;44.07;;
75730;SDS011;64350;47.450;19.124;2023-02-15T19:29:59;107.07;;;44.83;;
75730;SDS011;64350;47.450;19.124;2023-02-15T19:32:27;112.65;;;46.42;;
75730;SDS011;64350;47.450;19.124;2023-02-15T19:34:54;118.72;;;46.15;;
75730;SDS011;64350;47.450;19.124;2023-02-15T19:37:24;114.93;;;46.20;;
75730;SDS011;64350;47.450;19.124;2023-02-15T19:39:53;118.57;;;46.28;;
75730;SDS011;64350;47.450;19.124;2023-02-15T19:42:21;120.28;;;47.95;;
75730;SDS011;64350;47.450;19.124;2023-02-15T19:44:47;122.55;;;48.20;;
75730;SDS011;64350;47.450;19.124;2023-02-15T19:47:13;122.30;;;48.53;;
75730;SDS011;64350;47.450;19.124;2023-02-15T19:49:38;115.68;;;47.83;;
75730;SDS011;64350;47.450;19.124;2023-02-15T19:52:04;115.97;;;47.53;;
75730;SDS011;64350;47.450;19.124;2023-02-15T19:54:37;122.75;;;48.28;;
75730;SDS011;64350;47.450;19.124;2023-02-15T19:57:02;110.03;;;47.43;;
75730;SDS011;64350;47.450;19.124;2023-02-15T19:59:29;117.50;;;46.40;;
75730;SDS011;64350;47.450;19.124;2023-02-15T20:01:56;113.30;;;46.55;;
75730;SDS011;64350;47.450;19.124;2023-02-15T20:04:22;116.32;;;47.60;;
75730;SDS011;64350;47.450;19.124;2023-02-15T20:06:48;118.97;;;46.67;;
75730;SDS011;64350;47.450;19.124;2023-02-15T20:09:21;119.20;;;47.73;;
75730;SDS011;64350;47.450;19.124;2023-02-15T20:11:52;116.00;;;47.17;;
75730;SDS011;64350;47.450;19.124;2023-02-15T20:14:18;111.62;;;46.78;;
75730;SDS011;64350;47.450;19.124;2023-02-15T20:16:44;118.82;;;47.42;;
75730;SDS011;64350;47.450;19.124;2023-02-15T20:19:09;127.70;;;47.70;;
75730;SDS011;64350;47.450;19.124;2023-02-15T20:21:36;118.05;;;48.90;;
75730;SDS011;64350;47.450;19.124;2023-02-15T20:24:02;120.07;;;48.17;;
75730;SDS011;64350;47.450;19.124;2023-02-15T20:26:28;119.72;;;48.10;;
75730;SDS011;64350;47.450;19.124;2023-02-15T20:28:55;124.85;;;48.83;;
75730;SDS011;64350;47.450;19.124;2023-02-15T20:31:21;125.27;;;50.03;;
75730;SDS011;64350;47.450;19.124;2023-02-15T20:33:49;119.95;;;49.00;;
75730;SDS011;64350;47.450;19.124;2023-02-15T20:36:16;117.90;;;47.70;;
75730;SDS011;64350;47.450;19.124;2023-02-15T20:38:43;121.25;;;46.65;;
75730;SDS011;64350;47.450;19.124;2023-02-15T20:41:13;117.00;;;49.38;;
75730;SDS011;64350;47.450;19.124;2023-02-15T20:43:59;125.60;;;50.92;;
75730;SDS011;64350;47.450;19.124;2023-02-15T20:46:24;124.87;;;52.63;;
75730;SDS011;64350;47.450;19.124;2023-02-15T20:48:50;124.97;;;52.80;;
75730;SDS011;64350;47.450;19.124;2023-02-15T20:51:16;126.85;;;49.53;;
75730;SDS011;64350;47.450;19.124;2023-02-15T20:53:42;124.67;;;48.97;;
75730;SDS011;64350;47.450;19.124;2023-02-15T20:56:21;123.15;;;47.78;;
75730;SDS011;64350;47.450;19.124;2023-02-15T20:58:48;119.70;;;50.10;;
75730;SDS011;64350;47.450;19.124;2023-02-15T21:01:14;123.10;;;51.97;;
75730;SDS011;64350;47.450;19.124;2023-02-15T21:03:42;119.57;;;49.33;;
75730;SDS011;64350;47.450;19.124;2023-02-15T21:06:14;123.65;;;50.22;;
75730;SDS011;64350;47.450;19.124;2023-02-15T21:08:40;114.57;;;48.60;;
75730;SDS011;64350;47.450;19.124;2023-02-15T21:11:24;121.57;;;51.13;;
75730;SDS011;64350;47.450;19.124;2023-02-15T21:13:51;117.80;;;50.73;;
75730;SDS011;64350;47.450;19.124;2023-02-15T21:16:22;121.40;;;51.70;;
75730;SDS011;64350;47.450;19.124;2023-02-15T21:18:48;122.67;;;50.30;;
75730;SDS011;64350;47.450;19.124;2023-02-15T21:21:20;126.63;;;50.77;;
75730;SDS011;64350;47.450;19.124;2023-02-15T21:23:47;125.97;;;52.33;;
75730;SDS011;64350;47.450;19.124;2023-02-15T21:26:16;123.65;;;50.90;;
75730;SDS011;64350;47.450;19.124;2023-02-15T21:28:44;125.03;;;51.40;;
75730;SDS011;64350;47.450;19.124;2023-02-15T21:31:20;117.80;;;50.67;;
75730;SDS011;64350;47.450;19.124;2023-02-15T21:33:53;111.37;;;49.13;;
75730;SDS011;64350;47.450;19.124;2023-02-15T21:36:20;108.18;;;48.80;;
75730;SDS011;64350;47.450;19.124;2023-02-15T21:38:47;122.75;;;49.53;;
75730;SDS011;64350;47.450;19.124;2023-02-15T21:41:17;113.88;;;48.75;;
75730;SDS011;64350;47.450;19.124;2023-02-15T21:44:11;117.23;;;49.90;;
75730;SDS011;64350;47.450;19.124;2023-02-15T21:46:59;119.25;;;50.30;;
75730;SDS011;64350;47.450;19.124;2023-02-15T21:49:59;115.07;;;48.72;;
75730;SDS011;64350;47.450;19.124;2023-02-15T21:52:44;115.15;;;46.92;;
75730;SDS011;64350;47.450;19.124;2023-02-15T21:55:12;115.07;;;47.70;;
75730;SDS011;64350;47.450;19.124;2023-02-15T21:57:38;111.40;;;48.05;;
